createdAt,value
2022-08-29T00:03:01.498Z,16.8
2022-08-29T00:18:01.389Z,16.7
2022-08-29T00:23:01.437Z,16.8
2022-08-29T00:33:01.380Z,16.9
2022-08-29T00:38:01.389Z,17.0
2022-08-29T00:44:01.367Z,17.1
2022-08-29T00:49:01.366Z,17.2
2022-08-29T00:54:01.496Z,17.4
2022-08-29T01:04:01.379Z,17.5
2022-08-29T01:14:01.424Z,17.4
2022-08-29T01:24:01.372Z,17.3
2022-08-29T01:34:01.435Z,17.2
2022-08-29T01:39:01.300Z,17.1
2022-08-29T01:44:01.493Z,17.0
2022-08-29T01:49:01.302Z,16.9
2022-08-29T02:04:01.438Z,16.9
2022-08-29T02:09:01.335Z,16.8
2022-08-29T02:24:11.439Z,16.7
2022-08-29T02:30:01.258Z,16.6
2022-08-29T02:40:01.485Z,16.5
2022-08-29T02:45:01.436Z,16.5
2022-08-29T02:55:01.386Z,16.6
2022-08-29T03:00:02.446Z,16.7
2022-08-29T03:05:01.364Z,16.8
2022-08-29T03:15:07.538Z,16.9
2022-08-29T03:25:01.444Z,17.0
2022-08-29T03:30:01.543Z,17.0
2022-08-29T03:45:01.313Z,17.0
2022-08-29T03:50:01.313Z,17.1
2022-08-29T04:00:06.383Z,17.1
2022-08-29T04:15:01.311Z,17.1
2022-08-29T04:30:01.301Z,17.1
2022-08-29T04:45:01.312Z,17.1
2022-08-29T05:00:02.388Z,17.1
2022-08-29T05:15:01.298Z,17.1
2022-08-29T05:20:01.434Z,17.2
2022-08-29T05:30:02.348Z,17.2
2022-08-29T05:45:01.310Z,17.2
2022-08-29T06:00:03.029Z,17.2
2022-08-29T06:05:01.300Z,17.3
2022-08-29T06:15:01.313Z,17.3
2022-08-29T06:20:01.362Z,17.4
2022-08-29T06:30:02.097Z,17.5
2022-08-29T06:45:01.448Z,17.6
2022-08-29T06:55:01.405Z,17.7
2022-08-29T07:00:13.653Z,17.7
2022-08-29T07:05:01.628Z,17.8
2022-08-29T07:10:01.606Z,17.9
2022-08-29T07:15:01.429Z,17.9
2022-08-29T07:20:01.461Z,18.0
2022-08-29T07:25:01.592Z,18.1
2022-08-29T07:30:01.307Z,18.1
2022-08-29T07:35:01.389Z,18.2
2022-08-29T07:45:01.593Z,18.2
2022-08-29T08:00:03.112Z,18.2
2022-08-29T08:15:01.708Z,18.2
2022-08-29T08:20:06.285Z,18.3
2022-08-29T08:30:01.438Z,18.4
2022-08-29T08:35:01.503Z,18.5
2022-08-29T08:40:01.453Z,18.6
2022-08-29T08:45:01.504Z,18.6
2022-08-29T08:50:01.435Z,18.7
2022-08-29T08:55:01.449Z,18.8
2022-08-29T09:00:02.519Z,18.9
2022-08-29T09:05:16.164Z,19.0
2022-08-29T09:10:01.303Z,19.1
2022-08-29T09:15:01.620Z,19.1
2022-08-29T09:31:01.387Z,19.0
2022-08-29T09:36:01.346Z,18.9
2022-08-29T09:41:01.505Z,18.8
2022-08-29T09:46:01.656Z,18.7
2022-08-29T09:51:01.907Z,18.6
2022-08-29T09:56:01.415Z,18.5
2022-08-29T10:11:01.463Z,18.5
2022-08-29T10:16:01.298Z,18.6
2022-08-29T10:21:01.356Z,18.7
2022-08-29T10:31:01.095Z,18.8
2022-08-29T10:46:01.151Z,18.8
2022-08-29T10:56:06.003Z,18.9
2022-08-29T11:11:01.538Z,18.9
2022-08-29T11:16:01.653Z,19.0
2022-08-29T11:26:01.432Z,19.1
2022-08-29T11:31:01.327Z,19.3
2022-08-29T11:36:04.381Z,19.5
2022-08-29T12:05:01.095Z,19.8
2022-08-29T12:15:01.179Z,19.9
2022-08-29T12:20:01.027Z,20.0
2022-08-29T12:25:01.157Z,20.1
2022-08-29T12:30:01.045Z,20.3
2022-08-29T12:35:01.097Z,20.5
2022-08-29T12:40:01.106Z,20.6
2022-08-29T12:45:01.098Z,20.8
2022-08-29T12:50:01.121Z,21.0
2022-08-29T13:00:02.709Z,21.1
2022-08-29T13:05:01.163Z,21.3
2022-08-29T13:10:01.125Z,21.4
2022-08-29T13:15:16.899Z,21.3
2022-08-29T13:20:01.062Z,21.4
2022-08-29T13:25:02.068Z,21.5
2022-08-29T13:30:01.046Z,21.4
2022-08-29T13:35:01.178Z,21.3
2022-08-29T13:45:01.113Z,21.4
2022-08-29T13:55:01.191Z,21.2
2022-08-29T14:00:02.790Z,21.1
2022-08-29T14:10:06.225Z,21.0
2022-08-29T14:15:09.240Z,21.0
2022-08-29T14:20:01.068Z,21.2
2022-08-29T14:25:01.212Z,21.3
2022-08-29T14:30:01.156Z,21.3
2022-08-29T14:35:01.063Z,21.4
2022-08-29T14:40:01.116Z,21.5
2022-08-29T14:45:01.156Z,21.6
2022-08-29T14:50:01.144Z,21.7
2022-08-29T15:00:02.093Z,21.6
2022-08-29T15:05:01.206Z,21.4
2022-08-29T15:10:01.092Z,21.2
2022-08-29T15:15:01.199Z,21.0
2022-08-29T15:30:01.288Z,21.0
2022-08-29T15:35:02.219Z,21.1
2022-08-29T15:45:02.513Z,21.1
2022-08-29T15:55:07.350Z,21.2
2022-08-29T16:00:02.527Z,21.2
2022-08-29T16:05:01.241Z,21.4
2022-08-29T16:10:03.665Z,21.5
2022-08-29T16:15:01.887Z,21.4
2022-08-29T16:20:01.285Z,21.3
2022-08-29T16:25:01.153Z,21.1
2022-08-29T16:30:01.120Z,20.8
2022-08-29T16:35:01.105Z,20.7
2022-08-29T16:45:01.095Z,20.8
2022-08-29T16:50:01.135Z,20.9
2022-08-29T16:55:01.087Z,21.1
2022-08-29T17:00:02.309Z,21.2
2022-08-29T17:05:01.096Z,21.3
2022-08-29T17:10:01.160Z,21.5
2022-08-29T17:15:01.101Z,21.7
2022-08-29T17:20:01.103Z,21.8
2022-08-29T17:25:08.287Z,21.7
2022-08-29T17:30:01.125Z,21.5
2022-08-29T17:35:01.068Z,21.0
2022-08-29T17:40:01.186Z,20.6
2022-08-29T17:45:01.102Z,20.1
2022-08-29T17:50:01.103Z,19.8
2022-08-29T17:55:05.160Z,19.5
2022-08-29T18:00:02.836Z,19.3
2022-08-29T18:05:01.122Z,19.1
2022-08-29T18:10:02.818Z,19.0
2022-08-29T18:15:01.124Z,18.8
2022-08-29T18:20:01.333Z,18.7
2022-08-29T18:25:01.118Z,18.5
2022-08-29T18:30:01.197Z,18.4
2022-08-29T18:35:01.124Z,18.2
2022-08-29T18:40:01.152Z,18.1
2022-08-29T18:45:01.133Z,17.9
2022-08-29T18:50:01.884Z,17.8
2022-08-29T18:55:01.119Z,17.6
2022-08-29T19:00:02.594Z,17.5
2022-08-29T19:05:01.135Z,17.3
2022-08-29T19:10:01.118Z,17.2
2022-08-29T19:15:01.202Z,17.1
2022-08-29T19:25:02.171Z,17.0
2022-08-29T19:30:05.102Z,17.0
2022-08-29T19:35:01.202Z,16.8
2022-08-29T19:40:01.359Z,16.7
2022-08-29T19:45:01.264Z,16.6
2022-08-29T19:50:01.135Z,16.5
2022-08-29T19:55:01.202Z,16.3
2022-08-29T20:00:02.119Z,16.2
2022-08-29T20:05:01.281Z,16.1
2022-08-29T20:10:01.224Z,16.0
2022-08-29T20:15:15.973Z,15.8
2022-08-29T20:20:01.077Z,15.7
2022-08-29T20:25:01.209Z,15.5
2022-08-29T20:30:01.163Z,15.4
2022-08-29T20:35:01.337Z,15.2
2022-08-29T20:40:01.338Z,15.1
2022-08-29T20:45:01.272Z,15.0
2022-08-29T20:50:01.198Z,14.9
2022-08-29T20:55:01.208Z,14.7
2022-08-29T21:00:02.563Z,14.6
2022-08-29T21:05:15.957Z,14.5
2022-08-29T21:10:01.839Z,14.4
2022-08-29T21:15:01.312Z,14.3
2022-08-29T21:20:01.215Z,14.2
2022-08-29T21:25:01.255Z,14.1
2022-08-29T21:30:01.227Z,14.0
2022-08-29T21:35:01.223Z,13.8
2022-08-29T21:40:01.505Z,13.7
2022-08-29T21:45:01.298Z,13.6
2022-08-29T21:55:01.240Z,13.5
2022-08-29T22:00:02.339Z,13.5
2022-08-29T22:05:01.324Z,13.4
2022-08-29T22:15:16.009Z,13.3
2022-08-29T22:20:01.116Z,13.2
2022-08-29T22:30:01.258Z,13.1
2022-08-29T22:35:01.266Z,13.0
2022-08-29T22:45:03.844Z,12.9
2022-08-29T22:55:01.398Z,12.8
2022-08-29T23:00:02.421Z,12.7
2022-08-29T23:10:13.993Z,12.6
2022-08-29T23:15:01.370Z,12.5
2022-08-29T23:20:02.877Z,12.4
2022-08-29T23:25:10.598Z,12.3
2022-08-29T23:30:01.221Z,12.2
2022-08-29T23:35:01.277Z,12.0
2022-08-29T23:40:01.480Z,11.9
2022-08-29T23:45:01.373Z,11.8
2022-08-29T23:55:01.351Z,11.7
